sensor_id;sensor_type;location;lat;lon;timestamp;P1;durP1;ratioP1;P2;durP2;ratioP2
11960;SDS011;6040;49.358;11.140;2023-04-15T00:00:06;8.93;;;6.63;;
11960;SDS011;6040;49.358;11.140;2023-04-15T00:02:34;8.53;;;7.20;;
11960;SDS011;6040;49.358;11.140;2023-04-15T00:05:03;9.57;;;7.30;;
11960;SDS011;6040;49.358;11.140;2023-04-15T00:07:30;9.47;;;7.33;;
11960;SDS011;6040;49.358;11.140;2023-04-15T00:09:57;8.50;;;7.03;;
11960;SDS011;6040;49.358;11.140;2023-04-15T00:12:26;8.17;;;7.27;;
11960;SDS011;6040;49.358;11.140;2023-04-15T00:14:53;7.43;;;6.63;;
11960;SDS011;6040;49.358;11.140;2023-04-15T00:17:21;6.97;;;6.23;;
11960;SDS011;6040;49.358;11.140;2023-04-15T00:19:48;7.53;;;6.77;;
11960;SDS011;6040;49.358;11.140;2023-04-15T00:22:16;7.50;;;6.13;;
11960;SDS011;6040;49.358;11.140;2023-04-15T00:24:43;8.20;;;6.73;;
11960;SDS011;6040;49.358;11.140;2023-04-15T00:27:10;9.93;;;6.17;;
11960;SDS011;6040;49.358;11.140;2023-04-15T00:29:37;8.00;;;6.17;;
11960;SDS011;6040;49.358;11.140;2023-04-15T00:32:03;6.93;;;6.23;;
11960;SDS011;6040;49.358;11.140;2023-04-15T00:34:30;7.43;;;6.40;;
11960;SDS011;6040;49.358;11.140;2023-04-15T00:36:57;6.93;;;6.27;;
11960;SDS011;6040;49.358;11.140;2023-04-15T00:39:26;7.10;;;6.27;;
11960;SDS011;6040;49.358;11.140;2023-04-15T00:41:53;7.20;;;6.23;;
11960;SDS011;6040;49.358;11.140;2023-04-15T00:44:21;6.63;;;5.47;;
11960;SDS011;6040;49.358;11.140;2023-04-15T00:46:49;6.30;;;5.70;;
11960;SDS011;6040;49.358;11.140;2023-04-15T00:49:17;6.23;;;5.63;;
11960;SDS011;6040;49.358;11.140;2023-04-15T00:51:44;6.40;;;5.80;;
11960;SDS011;6040;49.358;11.140;2023-04-15T00:54:11;6.57;;;5.97;;
11960;SDS011;6040;49.358;11.140;2023-04-15T00:56:39;7.43;;;5.67;;
11960;SDS011;6040;49.358;11.140;2023-04-15T00:59:07;6.10;;;5.50;;
11960;SDS011;6040;49.358;11.140;2023-04-15T01:01:35;6.43;;;5.83;;
11960;SDS011;6040;49.358;11.140;2023-04-15T01:04:02;6.40;;;5.57;;
11960;SDS011;6040;49.358;11.140;2023-04-15T01:06:30;6.83;;;5.50;;
11960;SDS011;6040;49.358;11.140;2023-04-15T01:08:57;5.90;;;5.30;;
11960;SDS011;6040;49.358;11.140;2023-04-15T01:11:26;6.63;;;5.93;;
11960;SDS011;6040;49.358;11.140;2023-04-15T01:13:57;7.60;;;5.83;;
11960;SDS011;6040;49.358;11.140;2023-04-15T01:16:24;6.13;;;5.40;;
11960;SDS011;6040;49.358;11.140;2023-04-15T01:18:52;6.40;;;5.77;;
11960;SDS011;6040;49.358;11.140;2023-04-15T01:21:20;6.40;;;5.63;;
11960;SDS011;6040;49.358;11.140;2023-04-15T01:23:47;6.37;;;5.73;;
11960;SDS011;6040;49.358;11.140;2023-04-15T01:26:17;7.50;;;5.80;;
11960;SDS011;6040;49.358;11.140;2023-04-15T01:28:45;6.20;;;5.50;;
11960;SDS011;6040;49.358;11.140;2023-04-15T01:31:13;5.93;;;5.27;;
11960;SDS011;6040;49.358;11.140;2023-04-15T01:33:40;5.87;;;5.10;;
11960;SDS011;6040;49.358;11.140;2023-04-15T01:36:08;8.17;;;5.40;;
11960;SDS011;6040;49.358;11.140;2023-04-15T01:38:35;6.77;;;5.30;;
11960;SDS011;6040;49.358;11.140;2023-04-15T01:41:02;6.40;;;5.70;;
11960;SDS011;6040;49.358;11.140;2023-04-15T01:43:33;7.33;;;5.33;;
11960;SDS011;6040;49.358;11.140;2023-04-15T01:46:00;7.20;;;5.50;;
11960;SDS011;6040;49.358;11.140;2023-04-15T01:48:27;6.17;;;5.30;;
11960;SDS011;6040;49.358;11.140;2023-04-15T01:50:53;8.23;;;5.70;;
11960;SDS011;6040;49.358;11.140;2023-04-15T01:53:21;8.03;;;5.77;;
11960;SDS011;6040;49.358;11.140;2023-04-15T01:55:48;6.87;;;5.60;;
11960;SDS011;6040;49.358;11.140;2023-04-15T01:58:16;5.80;;;5.20;;
11960;SDS011;6040;49.358;11.140;2023-04-15T02:00:44;7.67;;;5.97;;
11960;SDS011;6040;49.358;11.140;2023-04-15T02:03:11;5.77;;;5.10;;
11960;SDS011;6040;49.358;11.140;2023-04-15T02:05:38;6.30;;;4.93;;
11960;SDS011;6040;49.358;11.140;2023-04-15T02:08:04;7.50;;;5.23;;
11960;SDS011;6040;49.358;11.140;2023-04-15T02:10:31;6.30;;;5.70;;
11960;SDS011;6040;49.358;11.140;2023-04-15T02:12:58;5.70;;;5.13;;
11960;SDS011;6040;49.358;11.140;2023-04-15T02:15:25;6.47;;;5.67;;
11960;SDS011;6040;49.358;11.140;2023-04-15T02:17:53;6.87;;;5.67;;
11960;SDS011;6040;49.358;11.140;2023-04-15T02:20:20;6.10;;;5.03;;
11960;SDS011;6040;49.358;11.140;2023-04-15T02:22:47;5.50;;;4.97;;
11960;SDS011;6040;49.358;11.140;2023-04-15T02:25:14;5.30;;;4.80;;
11960;SDS011;6040;49.358;11.140;2023-04-15T02:27:42;5.43;;;4.90;;
11960;SDS011;6040;49.358;11.140;2023-04-15T02:30:09;5.50;;;5.00;;
11960;SDS011;6040;49.358;11.140;2023-04-15T02:32:36;5.93;;;5.33;;
11960;SDS011;6040;49.358;11.140;2023-04-15T02:35:05;5.70;;;5.10;;
11960;SDS011;6040;49.358;11.140;2023-04-15T02:37:34;5.80;;;5.20;;
11960;SDS011;6040;49.358;11.140;2023-04-15T02:40:06;5.30;;;4.80;;
11960;SDS011;6040;49.358;11.140;2023-04-15T02:42:34;5.80;;;5.10;;
11960;SDS011;6040;49.358;11.140;2023-04-15T02:45:01;6.33;;;5.03;;
11960;SDS011;6040;49.358;11.140;2023-04-15T02:47:27;5.00;;;4.60;;
11960;SDS011;6040;49.358;11.140;2023-04-15T02:49:54;5.83;;;4.80;;
11960;SDS011;6040;49.358;11.140;2023-04-15T02:52:24;5.87;;;5.13;;
11960;SDS011;6040;49.358;11.140;2023-04-15T02:54:50;5.23;;;4.73;;
11960;SDS011;6040;49.358;11.140;2023-04-15T02:57:17;5.20;;;4.67;;
11960;SDS011;6040;49.358;11.140;2023-04-15T02:59:44;5.17;;;4.67;;
11960;SDS011;6040;49.358;11.140;2023-04-15T03:02:11;5.77;;;5.10;;
11960;SDS011;6040;49.358;11.140;2023-04-15T03:04:38;6.97;;;5.07;;
11960;SDS011;6040;49.358;11.140;2023-04-15T03:07:05;6.10;;;5.50;;
11960;SDS011;6040;49.358;11.140;2023-04-15T03:09:33;5.47;;;4.80;;
11960;SDS011;6040;49.358;11.140;2023-04-15T03:12:00;5.30;;;4.80;;
11960;SDS011;6040;49.358;11.140;2023-04-15T03:14:27;5.23;;;4.60;;
11960;SDS011;6040;49.358;11.140;2023-04-15T03:16:54;5.43;;;4.93;;
11960;SDS011;6040;49.358;11.140;2023-04-15T03:19:22;5.47;;;4.73;;
11960;SDS011;6040;49.358;11.140;2023-04-15T03:21:48;5.33;;;4.83;;
11960;SDS011;6040;49.358;11.140;2023-04-15T03:24:16;6.97;;;4.80;;
11960;SDS011;6040;49.358;11.140;2023-04-15T03:26:44;5.03;;;4.53;;
11960;SDS011;6040;49.358;11.140;2023-04-15T03:29:11;5.73;;;4.73;;
11960;SDS011;6040;49.358;11.140;2023-04-15T03:31:37;5.03;;;4.40;;
11960;SDS011;6040;49.358;11.140;2023-04-15T03:34:04;5.20;;;4.70;;
11960;SDS011;6040;49.358;11.140;2023-04-15T03:36:31;5.20;;;4.70;;
11960;SDS011;6040;49.358;11.140;2023-04-15T03:38:58;4.63;;;4.00;;
11960;SDS011;6040;49.358;11.140;2023-04-15T03:41:26;4.97;;;4.30;;
11960;SDS011;6040;49.358;11.140;2023-04-15T03:43:54;4.77;;;4.37;;
11960;SDS011;6040;49.358;11.140;2023-04-15T03:46:21;5.77;;;4.63;;
11960;SDS011;6040;49.358;11.140;2023-04-15T03:48:47;5.53;;;4.93;;
11960;SDS011;6040;49.358;11.140;2023-04-15T03:51:14;5.57;;;4.83;;
11960;SDS011;6040;49.358;11.140;2023-04-15T03:53:41;6.43;;;5.30;;
11960;SDS011;6040;49.358;11.140;2023-04-15T03:56:08;5.80;;;4.43;;
11960;SDS011;6040;49.358;11.140;2023-04-15T03:58:35;5.70;;;4.77;;
11960;SDS011;6040;49.358;11.140;2023-04-15T04:01:03;7.30;;;4.70;;
11960;SDS011;6040;49.358;11.140;2023-04-15T04:03:30;6.53;;;4.27;;
11960;SDS011;6040;49.358;11.140;2023-04-15T04:05:57;4.70;;;4.13;;
11960;SDS011;6040;49.358;11.140;2023-04-15T04:08:24;5.33;;;4.40;;
11960;SDS011;6040;49.358;11.140;2023-04-15T04:10:51;4.40;;;4.00;;
11960;SDS011;6040;49.358;11.140;2023-04-15T04:13:18;4.33;;;3.93;;
11960;SDS011;6040;49.358;11.140;2023-04-15T04:15:45;4.53;;;4.13;;
11960;SDS011;6040;49.358;11.140;2023-04-15T04:18:13;5.60;;;4.30;;
11960;SDS011;6040;49.358;11.140;2023-04-15T04:20:40;5.70;;;4.17;;
11960;SDS011;6040;49.358;11.140;2023-04-15T04:23:07;4.73;;;4.27;;
11960;SDS011;6040;49.358;11.140;2023-04-15T04:25:33;4.87;;;4.47;;
11960;SDS011;6040;49.358;11.140;2023-04-15T04:28:00;7.50;;;4.70;;
11960;SDS011;6040;49.358;11.140;2023-04-15T04:30:27;5.87;;;4.43;;
11960;SDS011;6040;49.358;11.140;2023-04-15T04:32:54;4.93;;;4.37;;
11960;SDS011;6040;49.358;11.140;2023-04-15T04:35:22;4.30;;;3.90;;
11960;SDS011;6040;49.358;11.140;2023-04-15T04:37:49;4.73;;;4.07;;
11960;SDS011;6040;49.358;11.140;2023-04-15T04:40:16;5.33;;;4.10;;
11960;SDS011;6040;49.358;11.140;2023-04-15T04:42:43;6.60;;;4.17;;
11960;SDS011;6040;49.358;11.140;2023-04-15T04:45:10;5.17;;;4.10;;
11960;SDS011;6040;49.358;11.140;2023-04-15T04:47:37;4.40;;;4.00;;
11960;SDS011;6040;49.358;11.140;2023-04-15T04:50:04;4.43;;;4.03;;
11960;SDS011;6040;49.358;11.140;2023-04-15T04:52:34;4.80;;;4.00;;
11960;SDS011;6040;49.358;11.140;2023-04-15T04:55:01;4.40;;;4.00;;
11960;SDS011;6040;49.358;11.140;2023-04-15T04:57:28;4.33;;;3.93;;
11960;SDS011;6040;49.358;11.140;2023-04-15T04:59:55;5.07;;;4.27;;
11960;SDS011;6040;49.358;11.140;2023-04-15T05:02:22;4.70;;;4.30;;
11960;SDS011;6040;49.358;11.140;2023-04-15T05:04:51;4.73;;;3.97;;
11960;SDS011;6040;49.358;11.140;2023-04-15T05:07:18;5.20;;;4.20;;
11960;SDS011;6040;49.358;11.140;2023-04-15T05:09:46;4.80;;;4.30;;
11960;SDS011;6040;49.358;11.140;2023-04-15T05:12:13;4.20;;;3.77;;
11960;SDS011;6040;49.358;11.140;2023-04-15T05:14:40;5.27;;;4.33;;
11960;SDS011;6040;49.358;11.140;2023-04-15T05:17:07;5.47;;;4.50;;
11960;SDS011;6040;49.358;11.140;2023-04-15T05:19:35;5.23;;;4.73;;
11960;SDS011;6040;49.358;11.140;2023-04-15T05:22:02;7.00;;;4.80;;
11960;SDS011;6040;49.358;11.140;2023-04-15T05:24:28;4.90;;;4.40;;
11960;SDS011;6040;49.358;11.140;2023-04-15T05:26:56;6.47;;;4.93;;
11960;SDS011;6040;49.358;11.140;2023-04-15T05:29:24;6.23;;;4.50;;
11960;SDS011;6040;49.358;11.140;2023-04-15T05:31:51;5.30;;;4.73;;
11960;SDS011;6040;49.358;11.140;2023-04-15T05:34:18;5.83;;;4.43;;
11960;SDS011;6040;49.358;11.140;2023-04-15T05:36:45;5.93;;;5.33;;
11960;SDS011;6040;49.358;11.140;2023-04-15T05:39:11;7.17;;;5.00;;
11960;SDS011;6040;49.358;11.140;2023-04-15T05:41:38;5.03;;;4.53;;
11960;SDS011;6040;49.358;11.140;2023-04-15T05:44:06;6.70;;;5.00;;
11960;SDS011;6040;49.358;11.140;2023-04-15T05:46:33;6.83;;;4.83;;
11960;SDS011;6040;49.358;11.140;2023-04-15T05:49:00;5.87;;;5.27;;
11960;SDS011;6040;49.358;11.140;2023-04-15T05:51:27;7.97;;;4.83;;
11960;SDS011;6040;49.358;11.140;2023-04-15T05:53:54;5.57;;;4.70;;
11960;SDS011;6040;49.358;11.140;2023-04-15T05:56:20;5.37;;;4.87;;
11960;SDS011;6040;49.358;11.140;2023-04-15T05:58:47;6.13;;;5.40;;
11960;SDS011;6040;49.358;11.140;2023-04-15T06:01:15;7.87;;;4.87;;
11960;SDS011;6040;49.358;11.140;2023-04-15T06:03:42;8.23;;;5.33;;
11960;SDS011;6040;49.358;11.140;2023-04-15T06:06:09;5.50;;;4.90;;
11960;SDS011;6040;49.358;11.140;2023-04-15T06:08:36;6.67;;;5.17;;
11960;SDS011;6040;49.358;11.140;2023-04-15T06:11:03;5.43;;;4.63;;
11960;SDS011;6040;49.358;11.140;2023-04-15T06:13:30;5.57;;;4.97;;
11960;SDS011;6040;49.358;11.140;2023-04-15T06:15:56;5.93;;;5.03;;
11960;SDS011;6040;49.358;11.140;2023-04-15T06:18:25;4.80;;;4.37;;
11960;SDS011;6040;49.358;11.140;2023-04-15T06:20:51;5.97;;;5.20;;
11960;SDS011;6040;49.358;11.140;2023-04-15T06:23:18;6.53;;;5.57;;
11960;SDS011;6040;49.358;11.140;2023-04-15T06:25:45;6.97;;;5.37;;
11960;SDS011;6040;49.358;11.140;2023-04-15T06:28:12;7.37;;;5.87;;
11960;SDS011;6040;49.358;11.140;2023-04-15T06:30:39;7.97;;;5.50;;
11960;SDS011;6040;49.358;11.140;2023-04-15T06:33:06;6.23;;;5.60;;
11960;SDS011;6040;49.358;11.140;2023-04-15T06:35:35;6.17;;;5.47;;
11960;SDS011;6040;49.358;11.140;2023-04-15T06:38:03;8.03;;;6.00;;
11960;SDS011;6040;49.358;11.140;2023-04-15T06:40:30;10.43;;;5.73;;
11960;SDS011;6040;49.358;11.140;2023-04-15T06:42:57;7.30;;;5.73;;
11960;SDS011;6040;49.358;11.140;2023-04-15T06:45:23;8.03;;;5.90;;
11960;SDS011;6040;49.358;11.140;2023-04-15T06:47:50;6.47;;;5.67;;
11960;SDS011;6040;49.358;11.140;2023-04-15T06:50:17;7.80;;;6.17;;
11960;SDS011;6040;49.358;11.140;2023-04-15T06:52:45;6.67;;;5.77;;
11960;SDS011;6040;49.358;11.140;2023-04-15T06:55:12;6.40;;;5.80;;
11960;SDS011;6040;49.358;11.140;2023-04-15T06:57:39;6.50;;;5.73;;
11960;SDS011;6040;49.358;11.140;2023-04-15T07:00:06;6.60;;;5.37;;
11960;SDS011;6040;49.358;11.140;2023-04-15T07:02:35;8.07;;;6.47;;
11960;SDS011;6040;49.358;11.140;2023-04-15T07:05:02;6.43;;;5.83;;
11960;SDS011;6040;49.358;11.140;2023-04-15T07:07:29;7.37;;;6.40;;
11960;SDS011;6040;49.358;11.140;2023-04-15T07:09:57;7.50;;;5.93;;
11960;SDS011;6040;49.358;11.140;2023-04-15T07:12:26;7.13;;;5.97;;
11960;SDS011;6040;49.358;11.140;2023-04-15T07:14:53;6.53;;;5.87;;
11960;SDS011;6040;49.358;11.140;2023-04-15T07:17:20;6.73;;;5.50;;
11960;SDS011;6040;49.358;11.140;2023-04-15T07:19:47;7.20;;;5.90;;
11960;SDS011;6040;49.358;11.140;2023-04-15T07:22:13;8.23;;;6.10;;
11960;SDS011;6040;49.358;11.140;2023-04-15T07:24:40;6.07;;;5.47;;
11960;SDS011;6040;49.358;11.140;2023-04-15T07:27:09;7.43;;;5.23;;
11960;SDS011;6040;49.358;11.140;2023-04-15T07:29:36;6.93;;;5.47;;
11960;SDS011;6040;49.358;11.140;2023-04-15T07:32:03;6.83;;;5.90;;
11960;SDS011;6040;49.358;11.140;2023-04-15T07:34:31;7.30;;;5.93;;
11960;SDS011;6040;49.358;11.140;2023-04-15T07:36:57;6.53;;;5.80;;
11960;SDS011;6040;49.358;11.140;2023-04-15T07:39:24;6.40;;;5.77;;
11960;SDS011;6040;49.358;11.140;2023-04-15T07:41:51;8.03;;;5.80;;
11960;SDS011;6040;49.358;11.140;2023-04-15T07:44:19;6.80;;;6.10;;
11960;SDS011;6040;49.358;11.140;2023-04-15T07:46:46;8.60;;;5.97;;
11960;SDS011;6040;49.358;11.140;2023-04-15T07:49:13;6.53;;;5.83;;
11960;SDS011;6040;49.358;11.140;2023-04-15T07:51:40;7.47;;;6.33;;
11960;SDS011;6040;49.358;11.140;2023-04-15T07:54:06;6.50;;;5.87;;
11960;SDS011;6040;49.358;11.140;2023-04-15T07:56:34;7.37;;;6.20;;
11960;SDS011;6040;49.358;11.140;2023-04-15T07:59:00;7.07;;;5.90;;
11960;SDS011;6040;49.358;11.140;2023-04-15T08:01:30;5.87;;;4.90;;
11960;SDS011;6040;49.358;11.140;2023-04-15T08:03:58;7.07;;;4.43;;
11960;SDS011;6040;49.358;11.140;2023-04-15T08:06:24;4.53;;;4.00;;
11960;SDS011;6040;49.358;11.140;2023-04-15T08:08:53;4.70;;;4.20;;
11960;SDS011;6040;49.358;11.140;2023-04-15T08:11:20;4.73;;;4.10;;
11960;SDS011;6040;49.358;11.140;2023-04-15T08:13:48;6.00;;;4.17;;
11960;SDS011;6040;49.358;11.140;2023-04-15T08:16:16;4.60;;;3.83;;
11960;SDS011;6040;49.358;11.140;2023-04-15T08:18:46;4.10;;;3.53;;
11960;SDS011;6040;49.358;11.140;2023-04-15T08:21:13;3.47;;;3.17;;
11960;SDS011;6040;49.358;11.140;2023-04-15T08:23:40;4.00;;;3.43;;
11960;SDS011;6040;49.358;11.140;2023-04-15T08:26:07;3.90;;;3.50;;
11960;SDS011;6040;49.358;11.140;2023-04-15T08:28:35;4.07;;;3.63;;
11960;SDS011;6040;49.358;11.140;2023-04-15T08:31:03;4.37;;;3.90;;
11960;SDS011;6040;49.358;11.140;2023-04-15T08:33:30;3.70;;;3.27;;
11960;SDS011;6040;49.358;11.140;2023-04-15T08:35:58;5.07;;;3.00;;
11960;SDS011;6040;49.358;11.140;2023-04-15T08:38:25;3.33;;;3.03;;
11960;SDS011;6040;49.358;11.140;2023-04-15T08:40:52;4.27;;;3.33;;
11960;SDS011;6040;49.358;11.140;2023-04-15T08:43:20;3.53;;;3.17;;
11960;SDS011;6040;49.358;11.140;2023-04-15T08:45:50;4.63;;;3.30;;
11960;SDS011;6040;49.358;11.140;2023-04-15T08:48:18;4.00;;;3.47;;
11960;SDS011;6040;49.358;11.140;2023-04-15T08:50:46;4.70;;;3.30;;
11960;SDS011;6040;49.358;11.140;2023-04-15T08:53:15;3.40;;;3.10;;
11960;SDS011;6040;49.358;11.140;2023-04-15T08:55:43;3.00;;;2.80;;
11960;SDS011;6040;49.358;11.140;2023-04-15T08:58:10;2.77;;;2.57;;
11960;SDS011;6040;49.358;11.140;2023-04-15T09:00:38;3.50;;;2.40;;
11960;SDS011;6040;49.358;11.140;2023-04-15T09:03:06;3.27;;;2.47;;
11960;SDS011;6040;49.358;11.140;2023-04-15T09:05:34;2.30;;;2.00;;
11960;SDS011;6040;49.358;11.140;2023-04-15T09:08:02;2.53;;;1.70;;
11960;SDS011;6040;49.358;11.140;2023-04-15T09:10:31;1.70;;;1.60;;
11960;SDS011;6040;49.358;11.140;2023-04-15T09:12:59;1.57;;;1.20;;
11960;SDS011;6040;49.358;11.140;2023-04-15T09:15:27;1.37;;;1.27;;
11960;SDS011;6040;49.358;11.140;2023-04-15T09:17:54;2.57;;;1.40;;
11960;SDS011;6040;49.358;11.140;2023-04-15T09:20:21;1.40;;;1.30;;
11960;SDS011;6040;49.358;11.140;2023-04-15T09:22:49;2.63;;;1.50;;
11960;SDS011;6040;49.358;11.140;2023-04-15T09:25:26;1.60;;;1.40;;
11960;SDS011;6040;49.358;11.140;2023-04-15T09:27:56;1.93;;;1.50;;
11960;SDS011;6040;49.358;11.140;2023-04-15T09:30:24;1.67;;;1.57;;
11960;SDS011;6040;49.358;11.140;2023-04-15T09:32:53;1.53;;;1.40;;
11960;SDS011;6040;49.358;11.140;2023-04-15T09:35:21;1.30;;;1.20;;
11960;SDS011;6040;49.358;11.140;2023-04-15T09:37:49;1.30;;;1.20;;
11960;SDS011;6040;49.358;11.140;2023-04-15T09:40:29;1.50;;;1.20;;
11960;SDS011;6040;49.358;11.140;2023-04-15T09:42:58;1.50;;;1.40;;
11960;SDS011;6040;49.358;11.140;2023-04-15T09:45:26;1.47;;;1.37;;
11960;SDS011;6040;49.358;11.140;2023-04-15T09:47:53;1.50;;;1.40;;
11960;SDS011;6040;49.358;11.140;2023-04-15T09:50:20;1.50;;;1.40;;
11960;SDS011;6040;49.358;11.140;2023-04-15T09:52:47;1.70;;;1.50;;
11960;SDS011;6040;49.358;11.140;2023-04-15T09:55:14;1.40;;;1.30;;
11960;SDS011;6040;49.358;11.140;2023-04-15T09:57:44;1.83;;;1.70;;
11960;SDS011;6040;49.358;11.140;2023-04-15T10:00:13;2.40;;;1.90;;
11960;SDS011;6040;49.358;11.140;2023-04-15T10:02:40;1.60;;;1.50;;
11960;SDS011;6040;49.358;11.140;2023-04-15T10:05:09;1.73;;;1.63;;
11960;SDS011;6040;49.358;11.140;2023-04-15T10:07:36;3.07;;;1.60;;
11960;SDS011;6040;49.358;11.140;2023-04-15T10:10:05;1.73;;;1.63;;
11960;SDS011;6040;49.358;11.140;2023-04-15T10:12:33;2.93;;;1.70;;
11960;SDS011;6040;49.358;11.140;2023-04-15T10:15:03;1.87;;;1.70;;
11960;SDS011;6040;49.358;11.140;2023-04-15T10:17:33;1.80;;;1.53;;
11960;SDS011;6040;49.358;11.140;2023-04-15T10:20:02;2.67;;;1.30;;
11960;SDS011;6040;49.358;11.140;2023-04-15T10:22:31;1.40;;;1.30;;
11960;SDS011;6040;49.358;11.140;2023-04-15T10:24:58;1.43;;;1.17;;
11960;SDS011;6040;49.358;11.140;2023-04-15T10:27:25;1.47;;;1.30;;
11960;SDS011;6040;49.358;11.140;2023-04-15T10:29:53;1.47;;;1.30;;
11960;SDS011;6040;49.358;11.140;2023-04-15T10:32:20;1.20;;;1.10;;
11960;SDS011;6040;49.358;11.140;2023-04-15T10:34:50;1.30;;;1.20;;
11960;SDS011;6040;49.358;11.140;2023-04-15T10:37:19;1.13;;;1.10;;
11960;SDS011;6040;49.358;11.140;2023-04-15T10:39:46;1.40;;;1.30;;
11960;SDS011;6040;49.358;11.140;2023-04-15T10:42:14;1.30;;;1.20;;
11960;SDS011;6040;49.358;11.140;2023-04-15T10:44:42;1.43;;;1.20;;
11960;SDS011;6040;49.358;11.140;2023-04-15T10:47:11;1.47;;;1.10;;
11960;SDS011;6040;49.358;11.140;2023-04-15T10:49:43;1.53;;;1.40;;
11960;SDS011;6040;49.358;11.140;2023-04-15T10:52:12;1.30;;;1.30;;
11960;SDS011;6040;49.358;11.140;2023-04-15T10:54:40;1.57;;;1.37;;
11960;SDS011;6040;49.358;11.140;2023-04-15T10:57:08;3.00;;;1.43;;
11960;SDS011;6040;49.358;11.140;2023-04-15T10:59:59;3.17;;;1.50;;
11960;SDS011;6040;49.358;11.140;2023-04-15T11:02:43;1.83;;;1.50;;
11960;SDS011;6040;49.358;11.140;2023-04-15T11:05:12;2.03;;;1.50;;
11960;SDS011;6040;49.358;11.140;2023-04-15T11:07:51;2.03;;;1.47;;
11960;SDS011;6040;49.358;11.140;2023-04-15T11:13:20;1.47;;;1.37;;
11960;SDS011;6040;49.358;11.140;2023-04-15T11:15:56;3.10;;;1.73;;
11960;SDS011;6040;49.358;11.140;2023-04-15T11:18:26;2.67;;;1.63;;
11960;SDS011;6040;49.358;11.140;2023-04-15T11:20:57;1.77;;;1.67;;
11960;SDS011;6040;49.358;11.140;2023-04-15T11:23:36;2.27;;;2.07;;
11960;SDS011;6040;49.358;11.140;2023-04-15T11:26:05;1.80;;;1.70;;
11960;SDS011;6040;49.358;11.140;2023-04-15T11:28:36;1.77;;;1.67;;
11960;SDS011;6040;49.358;11.140;2023-04-15T11:31:08;2.00;;;1.90;;
11960;SDS011;6040;49.358;11.140;2023-04-15T11:33:36;1.93;;;1.80;;
11960;SDS011;6040;49.358;11.140;2023-04-15T11:36:03;1.90;;;1.80;;
11960;SDS011;6040;49.358;11.140;2023-04-15T11:38:30;1.67;;;1.57;;
11960;SDS011;6040;49.358;11.140;2023-04-15T11:41:00;2.00;;;1.80;;
11960;SDS011;6040;49.358;11.140;2023-04-15T11:43:27;1.60;;;1.50;;
11960;SDS011;6040;49.358;11.140;2023-04-15T11:45:59;1.60;;;1.50;;
11960;SDS011;6040;49.358;11.140;2023-04-15T11:48:28;2.00;;;1.60;;
11960;SDS011;6040;49.358;11.140;2023-04-15T11:50:58;1.67;;;1.53;;
11960;SDS011;6040;49.358;11.140;2023-04-15T11:53:34;1.50;;;1.40;;
11960;SDS011;6040;49.358;11.140;2023-04-15T11:56:04;1.60;;;1.50;;
11960;SDS011;6040;49.358;11.140;2023-04-15T11:58:33;4.13;;;1.50;;
11960;SDS011;6040;49.358;11.140;2023-04-15T12:01:00;1.90;;;1.80;;
11960;SDS011;6040;49.358;11.140;2023-04-15T12:03:28;2.67;;;1.70;;
11960;SDS011;6040;49.358;11.140;2023-04-15T12:06:08;1.57;;;1.47;;
11960;SDS011;6040;49.358;11.140;2023-04-15T12:11:45;2.17;;;1.60;;
11960;SDS011;6040;49.358;11.140;2023-04-15T12:14:18;1.60;;;1.50;;
11960;SDS011;6040;49.358;11.140;2023-04-15T12:16:47;2.13;;;1.50;;
11960;SDS011;6040;49.358;11.140;2023-04-15T12:19:21;1.80;;;1.70;;
11960;SDS011;6040;49.358;11.140;2023-04-15T12:21:50;1.40;;;1.30;;
11960;SDS011;6040;49.358;11.140;2023-04-15T12:24:18;1.70;;;1.60;;
11960;SDS011;6040;49.358;11.140;2023-04-15T12:26:49;1.83;;;1.67;;
11960;SDS011;6040;49.358;11.140;2023-04-15T12:29:17;1.90;;;1.80;;
11960;SDS011;6040;49.358;11.140;2023-04-15T12:31:45;2.20;;;1.87;;
11960;SDS011;6040;49.358;11.140;2023-04-15T12:34:14;1.70;;;1.60;;
11960;SDS011;6040;49.358;11.140;2023-04-15T12:36:41;2.27;;;1.50;;
11960;SDS011;6040;49.358;11.140;2023-04-15T12:39:08;1.60;;;1.50;;
11960;SDS011;6040;49.358;11.140;2023-04-15T12:41:35;3.10;;;1.60;;
11960;SDS011;6040;49.358;11.140;2023-04-15T12:44:03;1.53;;;1.43;;
11960;SDS011;6040;49.358;11.140;2023-04-15T12:46:30;1.73;;;1.63;;
11960;SDS011;6040;49.358;11.140;2023-04-15T12:48:57;1.97;;;1.70;;
11960;SDS011;6040;49.358;11.140;2023-04-15T12:51:24;1.80;;;1.70;;
11960;SDS011;6040;49.358;11.140;2023-04-15T12:53:51;1.70;;;1.60;;
11960;SDS011;6040;49.358;11.140;2023-04-15T12:56:18;1.80;;;1.57;;
11960;SDS011;6040;49.358;11.140;2023-04-15T12:58:45;3.00;;;1.70;;
11960;SDS011;6040;49.358;11.140;2023-04-15T13:01:13;2.20;;;1.60;;
11960;SDS011;6040;49.358;11.140;2023-04-15T13:03:40;2.03;;;1.73;;
11960;SDS011;6040;49.358;11.140;2023-04-15T13:06:07;1.90;;;1.80;;
11960;SDS011;6040;49.358;11.140;2023-04-15T13:08:33;2.20;;;1.93;;
11960;SDS011;6040;49.358;11.140;2023-04-15T13:11:00;2.00;;;1.90;;
11960;SDS011;6040;49.358;11.140;2023-04-15T13:13:27;1.93;;;1.80;;
11960;SDS011;6040;49.358;11.140;2023-04-15T13:15:56;2.13;;;1.73;;
11960;SDS011;6040;49.358;11.140;2023-04-15T13:18:24;2.03;;;1.60;;
11960;SDS011;6040;49.358;11.140;2023-04-15T13:20:51;2.03;;;1.77;;
11960;SDS011;6040;49.358;11.140;2023-04-15T13:23:19;2.60;;;2.00;;
11960;SDS011;6040;49.358;11.140;2023-04-15T13:25:46;1.70;;;1.60;;
11960;SDS011;6040;49.358;11.140;2023-04-15T13:28:12;1.73;;;1.43;;
11960;SDS011;6040;49.358;11.140;2023-04-15T13:30:39;2.17;;;1.70;;
11960;SDS011;6040;49.358;11.140;2023-04-15T13:33:08;1.73;;;1.60;;
11960;SDS011;6040;49.358;11.140;2023-04-15T13:35:36;1.97;;;1.70;;
11960;SDS011;6040;49.358;11.140;2023-04-15T13:38:04;1.70;;;1.60;;
11960;SDS011;6040;49.358;11.140;2023-04-15T13:40:31;2.07;;;1.90;;
11960;SDS011;6040;49.358;11.140;2023-04-15T13:42:58;2.97;;;1.63;;
11960;SDS011;6040;49.358;11.140;2023-04-15T13:45:25;1.40;;;1.30;;
11960;SDS011;6040;49.358;11.140;2023-04-15T13:47:51;1.80;;;1.70;;
11960;SDS011;6040;49.358;11.140;2023-04-15T13:50:18;1.73;;;1.63;;
11960;SDS011;6040;49.358;11.140;2023-04-15T13:52:47;1.83;;;1.73;;
11960;SDS011;6040;49.358;11.140;2023-04-15T13:55:13;1.70;;;1.60;;
11960;SDS011;6040;49.358;11.140;2023-04-15T13:57:40;2.10;;;1.83;;
11960;SDS011;6040;49.358;11.140;2023-04-15T14:00:08;2.00;;;1.70;;
11960;SDS011;6040;49.358;11.140;2023-04-15T14:02:35;1.70;;;1.60;;
11960;SDS011;6040;49.358;11.140;2023-04-15T14:05:03;1.60;;;1.50;;
11960;SDS011;6040;49.358;11.140;2023-04-15T14:07:31;2.33;;;1.80;;
11960;SDS011;6040;49.358;11.140;2023-04-15T14:09:59;1.90;;;1.80;;
11960;SDS011;6040;49.358;11.140;2023-04-15T14:12:26;1.60;;;1.50;;
11960;SDS011;6040;49.358;11.140;2023-04-15T14:14:53;1.50;;;1.40;;
11960;SDS011;6040;49.358;11.140;2023-04-15T14:17:20;1.70;;;1.60;;
11960;SDS011;6040;49.358;11.140;2023-04-15T14:19:46;1.70;;;1.60;;
11960;SDS011;6040;49.358;11.140;2023-04-15T14:22:13;1.70;;;1.60;;
11960;SDS011;6040;49.358;11.140;2023-04-15T14:24:41;1.60;;;1.50;;
11960;SDS011;6040;49.358;11.140;2023-04-15T14:27:09;1.70;;;1.60;;
11960;SDS011;6040;49.358;11.140;2023-04-15T14:29:36;1.70;;;1.60;;
11960;SDS011;6040;49.358;11.140;2023-04-15T14:32:03;2.27;;;1.60;;
11960;SDS011;6040;49.358;11.140;2023-04-15T14:34:30;1.77;;;1.53;;
11960;SDS011;6040;49.358;11.140;2023-04-15T14:36:57;1.60;;;1.50;;
11960;SDS011;6040;49.358;11.140;2023-04-15T14:39:24;1.50;;;1.40;;
11960;SDS011;6040;49.358;11.140;2023-04-15T14:41:51;1.70;;;1.60;;
11960;SDS011;6040;49.358;11.140;2023-04-15T14:44:19;1.93;;;1.73;;
11960;SDS011;6040;49.358;11.140;2023-04-15T14:46:46;1.50;;;1.40;;
11960;SDS011;6040;49.358;11.140;2023-04-15T14:49:13;1.67;;;1.57;;
11960;SDS011;6040;49.358;11.140;2023-04-15T14:51:40;1.60;;;1.50;;
11960;SDS011;6040;49.358;11.140;2023-04-15T14:54:07;1.70;;;1.60;;
11960;SDS011;6040;49.358;11.140;2023-04-15T14:56:34;1.93;;;1.50;;